sensor_id;sensor_type;location;lat;lon;timestamp;P1;durP1;ratioP1;P2;durP2;ratioP2
57567;SDS011;43403;51.948;5.922;2024-03-22T00:01:12;39.80;;;22.48;;
57567;SDS011;43403;51.948;5.922;2024-03-22T00:03:37;46.42;;;24.08;;
57567;SDS011;43403;51.948;5.922;2024-03-22T00:06:02;44.42;;;23.23;;
57567;SDS011;43403;51.948;5.922;2024-03-22T00:08:28;47.17;;;24.05;;
57567;SDS011;43403;51.948;5.922;2024-03-22T00:10:53;50.72;;;26.88;;
57567;SDS011;43403;51.948;5.922;2024-03-22T00:13:19;51.78;;;26.65;;
57567;SDS011;43403;51.948;5.922;2024-03-22T00:15:44;43.78;;;24.52;;
57567;SDS011;43403;51.948;5.922;2024-03-22T00:18:10;44.72;;;23.38;;
57567;SDS011;43403;51.948;5.922;2024-03-22T00:20:36;51.70;;;24.27;;
57567;SDS011;43403;51.948;5.922;2024-03-22T00:23:01;45.30;;;23.08;;
57567;SDS011;43403;51.948;5.922;2024-03-22T00:25:27;45.75;;;24.17;;
57567;SDS011;43403;51.948;5.922;2024-03-22T00:27:52;44.47;;;23.02;;
57567;SDS011;43403;51.948;5.922;2024-03-22T00:30:19;47.83;;;24.70;;
57567;SDS011;43403;51.948;5.922;2024-03-22T00:32:44;45.15;;;23.02;;
57567;SDS011;43403;51.948;5.922;2024-03-22T00:35:10;45.92;;;24.23;;
57567;SDS011;43403;51.948;5.922;2024-03-22T00:37:35;47.90;;;24.83;;
57567;SDS011;43403;51.948;5.922;2024-03-22T00:40:01;48.22;;;23.58;;
57567;SDS011;43403;51.948;5.922;2024-03-22T00:42:26;46.60;;;23.00;;
57567;SDS011;43403;51.948;5.922;2024-03-22T00:44:51;48.20;;;24.83;;
57567;SDS011;43403;51.948;5.922;2024-03-22T00:47:17;48.72;;;24.75;;
57567;SDS011;43403;51.948;5.922;2024-03-22T00:49:42;42.83;;;24.23;;
57567;SDS011;43403;51.948;5.922;2024-03-22T00:52:08;46.88;;;24.20;;
57567;SDS011;43403;51.948;5.922;2024-03-22T00:54:33;47.25;;;25.15;;
57567;SDS011;43403;51.948;5.922;2024-03-22T00:56:59;48.88;;;24.45;;
57567;SDS011;43403;51.948;5.922;2024-03-22T00:59:24;50.58;;;25.63;;
57567;SDS011;43403;51.948;5.922;2024-03-22T01:01:49;46.95;;;24.75;;
57567;SDS011;43403;51.948;5.922;2024-03-22T01:04:15;52.55;;;26.55;;
57567;SDS011;43403;51.948;5.922;2024-03-22T01:06:40;51.58;;;27.17;;
57567;SDS011;43403;51.948;5.922;2024-03-22T01:09:06;49.30;;;25.73;;
57567;SDS011;43403;51.948;5.922;2024-03-22T01:11:32;45.88;;;24.45;;
57567;SDS011;43403;51.948;5.922;2024-03-22T01:13:58;47.47;;;24.10;;
57567;SDS011;43403;51.948;5.922;2024-03-22T01:16:23;53.40;;;26.25;;
57567;SDS011;43403;51.948;5.922;2024-03-22T01:18:48;52.08;;;26.73;;
57567;SDS011;43403;51.948;5.922;2024-03-22T01:21:14;52.03;;;28.00;;
57567;SDS011;43403;51.948;5.922;2024-03-22T01:23:39;54.05;;;28.13;;
57567;SDS011;43403;51.948;5.922;2024-03-22T01:26:05;50.22;;;24.58;;
57567;SDS011;43403;51.948;5.922;2024-03-22T01:28:30;50.88;;;27.33;;
57567;SDS011;43403;51.948;5.922;2024-03-22T01:30:56;51.13;;;26.05;;
57567;SDS011;43403;51.948;5.922;2024-03-22T01:33:21;47.85;;;25.77;;
57567;SDS011;43403;51.948;5.922;2024-03-22T01:35:46;44.58;;;23.92;;
57567;SDS011;43403;51.948;5.922;2024-03-22T01:38:12;48.65;;;23.73;;
57567;SDS011;43403;51.948;5.922;2024-03-22T01:40:37;50.78;;;24.75;;
57567;SDS011;43403;51.948;5.922;2024-03-22T01:43:03;50.67;;;25.73;;
57567;SDS011;43403;51.948;5.922;2024-03-22T01:45:31;57.00;;;27.23;;
57567;SDS011;43403;51.948;5.922;2024-03-22T01:47:57;55.50;;;27.27;;
57567;SDS011;43403;51.948;5.922;2024-03-22T01:50:22;58.13;;;27.30;;
57567;SDS011;43403;51.948;5.922;2024-03-22T01:52:48;52.47;;;26.52;;
57567;SDS011;43403;51.948;5.922;2024-03-22T01:55:13;57.30;;;28.00;;
57567;SDS011;43403;51.948;5.922;2024-03-22T01:57:39;54.92;;;27.92;;
57567;SDS011;43403;51.948;5.922;2024-03-22T02:00:05;54.08;;;26.35;;
57567;SDS011;43403;51.948;5.922;2024-03-22T02:02:31;51.33;;;25.88;;
57567;SDS011;43403;51.948;5.922;2024-03-22T02:04:56;48.83;;;24.77;;
57567;SDS011;43403;51.948;5.922;2024-03-22T02:07:22;46.58;;;26.02;;
57567;SDS011;43403;51.948;5.922;2024-03-22T02:09:47;48.28;;;25.38;;
57567;SDS011;43403;51.948;5.922;2024-03-22T02:12:13;52.35;;;26.63;;
57567;SDS011;43403;51.948;5.922;2024-03-22T02:14:39;51.35;;;28.13;;
57567;SDS011;43403;51.948;5.922;2024-03-22T02:17:04;48.88;;;26.33;;
57567;SDS011;43403;51.948;5.922;2024-03-22T02:19:29;47.53;;;26.00;;
57567;SDS011;43403;51.948;5.922;2024-03-22T02:21:55;48.80;;;27.63;;
57567;SDS011;43403;51.948;5.922;2024-03-22T02:24:20;51.42;;;26.58;;
57567;SDS011;43403;51.948;5.922;2024-03-22T02:26:46;53.55;;;27.67;;
57567;SDS011;43403;51.948;5.922;2024-03-22T02:29:11;50.03;;;27.50;;
57567;SDS011;43403;51.948;5.922;2024-03-22T02:31:37;49.20;;;25.88;;
57567;SDS011;43403;51.948;5.922;2024-03-22T02:34:02;51.85;;;27.85;;
57567;SDS011;43403;51.948;5.922;2024-03-22T02:36:28;46.65;;;25.88;;
57567;SDS011;43403;51.948;5.922;2024-03-22T02:38:53;50.97;;;28.67;;
57567;SDS011;43403;51.948;5.922;2024-03-22T02:41:19;48.45;;;26.17;;
57567;SDS011;43403;51.948;5.922;2024-03-22T02:43:45;49.95;;;27.50;;
57567;SDS011;43403;51.948;5.922;2024-03-22T02:46:10;53.63;;;29.02;;
57567;SDS011;43403;51.948;5.922;2024-03-22T02:48:36;46.78;;;27.05;;
57567;SDS011;43403;51.948;5.922;2024-03-22T02:51:01;45.60;;;25.70;;
57567;SDS011;43403;51.948;5.922;2024-03-22T02:53:26;50.15;;;27.60;;
57567;SDS011;43403;51.948;5.922;2024-03-22T02:55:52;48.53;;;26.30;;
57567;SDS011;43403;51.948;5.922;2024-03-22T02:58:19;48.30;;;25.65;;
57567;SDS011;43403;51.948;5.922;2024-03-22T03:00:45;51.90;;;27.40;;
57567;SDS011;43403;51.948;5.922;2024-03-22T03:03:10;48.28;;;27.13;;
57567;SDS011;43403;51.948;5.922;2024-03-22T03:05:36;46.95;;;26.27;;
57567;SDS011;43403;51.948;5.922;2024-03-22T03:08:01;43.33;;;24.83;;
57567;SDS011;43403;51.948;5.922;2024-03-22T03:10:28;45.97;;;26.65;;
57567;SDS011;43403;51.948;5.922;2024-03-22T03:12:54;48.28;;;28.02;;
57567;SDS011;43403;51.948;5.922;2024-03-22T03:15:19;46.65;;;27.65;;
57567;SDS011;43403;51.948;5.922;2024-03-22T03:17:45;46.30;;;27.83;;
57567;SDS011;43403;51.948;5.922;2024-03-22T03:20:10;49.03;;;26.45;;
57567;SDS011;43403;51.948;5.922;2024-03-22T03:22:41;49.45;;;27.88;;
57567;SDS011;43403;51.948;5.922;2024-03-22T03:27:32;47.92;;;25.77;;
57567;SDS011;43403;51.948;5.922;2024-03-22T03:29:58;43.90;;;25.13;;
57567;SDS011;43403;51.948;5.922;2024-03-22T03:32:23;45.65;;;26.20;;
57567;SDS011;43403;51.948;5.922;2024-03-22T03:34:50;53.80;;;27.48;;
57567;SDS011;43403;51.948;5.922;2024-03-22T03:37:15;46.33;;;26.35;;
57567;SDS011;43403;51.948;5.922;2024-03-22T03:39:41;49.42;;;26.60;;
57567;SDS011;43403;51.948;5.922;2024-03-22T03:42:06;47.50;;;27.08;;
57567;SDS011;43403;51.948;5.922;2024-03-22T03:44:32;49.65;;;25.85;;
57567;SDS011;43403;51.948;5.922;2024-03-22T03:46:57;46.33;;;26.95;;
57567;SDS011;43403;51.948;5.922;2024-03-22T03:49:22;51.67;;;28.05;;
57567;SDS011;43403;51.948;5.922;2024-03-22T03:51:48;43.33;;;26.60;;
57567;SDS011;43403;51.948;5.922;2024-03-22T03:54:13;44.10;;;25.88;;
57567;SDS011;43403;51.948;5.922;2024-03-22T03:56:39;51.42;;;28.55;;
57567;SDS011;43403;51.948;5.922;2024-03-22T03:59:04;46.42;;;26.10;;
57567;SDS011;43403;51.948;5.922;2024-03-22T04:01:30;45.75;;;26.85;;
57567;SDS011;43403;51.948;5.922;2024-03-22T04:03:55;49.20;;;26.58;;
57567;SDS011;43403;51.948;5.922;2024-03-22T04:06:20;41.83;;;24.55;;
57567;SDS011;43403;51.948;5.922;2024-03-22T04:08:46;53.47;;;27.23;;
57567;SDS011;43403;51.948;5.922;2024-03-22T04:11:11;45.75;;;29.52;;
57567;SDS011;43403;51.948;5.922;2024-03-22T04:13:37;46.13;;;28.55;;
57567;SDS011;43403;51.948;5.922;2024-03-22T04:16:02;46.72;;;26.35;;
57567;SDS011;43403;51.948;5.922;2024-03-22T04:18:28;48.33;;;26.10;;
57567;SDS011;43403;51.948;5.922;2024-03-22T04:20:57;44.72;;;24.38;;
57567;SDS011;43403;51.948;5.922;2024-03-22T04:23:23;49.42;;;25.48;;
57567;SDS011;43403;51.948;5.922;2024-03-22T04:25:55;45.20;;;26.25;;
57567;SDS011;43403;51.948;5.922;2024-03-22T04:28:21;44.53;;;25.35;;
57567;SDS011;43403;51.948;5.922;2024-03-22T04:33:21;44.13;;;25.52;;
57567;SDS011;43403;51.948;5.922;2024-03-22T04:35:47;44.30;;;25.00;;
57567;SDS011;43403;51.948;5.922;2024-03-22T04:38:12;42.35;;;23.20;;
57567;SDS011;43403;51.948;5.922;2024-03-22T04:40:37;40.78;;;23.40;;
57567;SDS011;43403;51.948;5.922;2024-03-22T04:43:03;37.78;;;22.25;;
57567;SDS011;43403;51.948;5.922;2024-03-22T04:45:28;36.28;;;22.17;;
57567;SDS011;43403;51.948;5.922;2024-03-22T04:47:54;40.13;;;23.30;;
57567;SDS011;43403;51.948;5.922;2024-03-22T04:50:19;37.45;;;21.70;;
57567;SDS011;43403;51.948;5.922;2024-03-22T04:52:45;37.75;;;22.13;;
57567;SDS011;43403;51.948;5.922;2024-03-22T04:55:10;35.80;;;21.02;;
57567;SDS011;43403;51.948;5.922;2024-03-22T04:57:35;36.38;;;20.85;;
57567;SDS011;43403;51.948;5.922;2024-03-22T05:00:01;38.05;;;20.83;;
57567;SDS011;43403;51.948;5.922;2024-03-22T05:02:26;37.25;;;20.50;;
57567;SDS011;43403;51.948;5.922;2024-03-22T05:04:52;36.63;;;20.45;;
57567;SDS011;43403;51.948;5.922;2024-03-22T05:07:17;36.10;;;20.95;;
57567;SDS011;43403;51.948;5.922;2024-03-22T05:09:42;37.30;;;20.20;;
57567;SDS011;43403;51.948;5.922;2024-03-22T05:12:08;35.17;;;20.33;;
57567;SDS011;43403;51.948;5.922;2024-03-22T05:14:33;32.47;;;20.33;;
57567;SDS011;43403;51.948;5.922;2024-03-22T05:16:59;35.10;;;20.20;;
57567;SDS011;43403;51.948;5.922;2024-03-22T05:19:24;33.50;;;20.27;;
57567;SDS011;43403;51.948;5.922;2024-03-22T05:21:49;37.22;;;21.10;;
57567;SDS011;43403;51.948;5.922;2024-03-22T05:24:15;35.97;;;21.50;;
57567;SDS011;43403;51.948;5.922;2024-03-22T05:26:40;32.63;;;19.80;;
57567;SDS011;43403;51.948;5.922;2024-03-22T05:29:06;35.08;;;21.00;;
57567;SDS011;43403;51.948;5.922;2024-03-22T05:31:31;33.88;;;19.95;;
57567;SDS011;43403;51.948;5.922;2024-03-22T05:33:57;32.65;;;18.77;;
57567;SDS011;43403;51.948;5.922;2024-03-22T05:36:22;29.55;;;18.20;;
57567;SDS011;43403;51.948;5.922;2024-03-22T05:38:47;30.30;;;18.45;;
57567;SDS011;43403;51.948;5.922;2024-03-22T05:41:13;29.42;;;17.35;;
57567;SDS011;43403;51.948;5.922;2024-03-22T05:43:38;30.08;;;17.45;;
57567;SDS011;43403;51.948;5.922;2024-03-22T05:46:03;33.63;;;16.65;;
57567;SDS011;43403;51.948;5.922;2024-03-22T05:48:29;30.13;;;18.45;;
57567;SDS011;43403;51.948;5.922;2024-03-22T05:50:54;28.85;;;16.75;;
57567;SDS011;43403;51.948;5.922;2024-03-22T05:53:20;28.63;;;17.00;;
57567;SDS011;43403;51.948;5.922;2024-03-22T05:55:45;29.52;;;16.70;;
57567;SDS011;43403;51.948;5.922;2024-03-22T05:58:11;26.90;;;16.65;;
57567;SDS011;43403;51.948;5.922;2024-03-22T06:00:36;30.20;;;16.42;;
57567;SDS011;43403;51.948;5.922;2024-03-22T06:03:02;31.33;;;17.73;;
57567;SDS011;43403;51.948;5.922;2024-03-22T06:05:27;30.17;;;17.70;;
57567;SDS011;43403;51.948;5.922;2024-03-22T06:07:53;27.25;;;16.33;;
57567;SDS011;43403;51.948;5.922;2024-03-22T06:10:18;33.03;;;19.27;;
57567;SDS011;43403;51.948;5.922;2024-03-22T06:12:44;29.13;;;16.65;;
57567;SDS011;43403;51.948;5.922;2024-03-22T06:15:12;29.55;;;17.85;;
57567;SDS011;43403;51.948;5.922;2024-03-22T06:17:37;29.75;;;16.63;;
57567;SDS011;43403;51.948;5.922;2024-03-22T06:20:03;28.33;;;16.98;;
57567;SDS011;43403;51.948;5.922;2024-03-22T06:22:29;29.45;;;16.00;;
57567;SDS011;43403;51.948;5.922;2024-03-22T06:24:55;27.60;;;17.27;;
57567;SDS011;43403;51.948;5.922;2024-03-22T06:27:20;30.48;;;17.55;;
57567;SDS011;43403;51.948;5.922;2024-03-22T06:29:46;28.95;;;16.25;;
57567;SDS011;43403;51.948;5.922;2024-03-22T06:32:11;29.95;;;17.65;;
57567;SDS011;43403;51.948;5.922;2024-03-22T06:34:37;29.95;;;16.75;;
57567;SDS011;43403;51.948;5.922;2024-03-22T06:37:03;30.75;;;16.70;;
57567;SDS011;43403;51.948;5.922;2024-03-22T06:39:29;29.13;;;16.58;;
57567;SDS011;43403;51.948;5.922;2024-03-22T06:41:54;28.30;;;16.85;;
57567;SDS011;43403;51.948;5.922;2024-03-22T06:44:20;25.20;;;15.88;;
57567;SDS011;43403;51.948;5.922;2024-03-22T06:46:45;27.67;;;16.40;;
57567;SDS011;43403;51.948;5.922;2024-03-22T06:49:10;28.40;;;16.23;;
57567;SDS011;43403;51.948;5.922;2024-03-22T06:51:36;24.90;;;14.98;;
57567;SDS011;43403;51.948;5.922;2024-03-22T06:54:02;25.48;;;15.38;;
57567;SDS011;43403;51.948;5.922;2024-03-22T06:56:27;23.15;;;13.43;;
57567;SDS011;43403;51.948;5.922;2024-03-22T06:58:52;27.80;;;16.25;;
57567;SDS011;43403;51.948;5.922;2024-03-22T07:01:18;24.73;;;15.60;;
57567;SDS011;43403;51.948;5.922;2024-03-22T07:03:46;24.40;;;14.90;;
57567;SDS011;43403;51.948;5.922;2024-03-22T07:06:11;26.63;;;16.40;;
57567;SDS011;43403;51.948;5.922;2024-03-22T07:08:37;28.35;;;16.35;;
57567;SDS011;43403;51.948;5.922;2024-03-22T07:11:05;28.10;;;15.48;;
57567;SDS011;43403;51.948;5.922;2024-03-22T07:13:34;23.13;;;15.52;;
57567;SDS011;43403;51.948;5.922;2024-03-22T07:16:00;25.88;;;15.27;;
57567;SDS011;43403;51.948;5.922;2024-03-22T07:18:25;29.85;;;18.20;;
57567;SDS011;43403;51.948;5.922;2024-03-22T07:20:51;23.52;;;15.30;;
57567;SDS011;43403;51.948;5.922;2024-03-22T07:23:16;24.33;;;14.35;;
57567;SDS011;43403;51.948;5.922;2024-03-22T07:25:42;29.35;;;15.75;;
57567;SDS011;43403;51.948;5.922;2024-03-22T07:28:11;27.20;;;15.13;;
57567;SDS011;43403;51.948;5.922;2024-03-22T07:30:36;25.38;;;14.60;;
57567;SDS011;43403;51.948;5.922;2024-03-22T07:33:02;29.00;;;16.85;;
57567;SDS011;43403;51.948;5.922;2024-03-22T07:35:28;23.52;;;14.73;;
57567;SDS011;43403;51.948;5.922;2024-03-22T07:37:53;25.02;;;15.05;;
57567;SDS011;43403;51.948;5.922;2024-03-22T07:40:18;27.60;;;16.85;;
57567;SDS011;43403;51.948;5.922;2024-03-22T07:42:45;26.73;;;15.82;;
57567;SDS011;43403;51.948;5.922;2024-03-22T07:45:10;27.02;;;15.57;;
57567;SDS011;43403;51.948;5.922;2024-03-22T07:47:36;27.42;;;16.02;;
57567;SDS011;43403;51.948;5.922;2024-03-22T07:50:02;27.30;;;16.88;;
57567;SDS011;43403;51.948;5.922;2024-03-22T07:52:28;28.75;;;17.35;;
57567;SDS011;43403;51.948;5.922;2024-03-22T07:54:53;25.48;;;15.75;;
57567;SDS011;43403;51.948;5.922;2024-03-22T07:57:19;24.90;;;15.02;;
57567;SDS011;43403;51.948;5.922;2024-03-22T07:59:45;31.17;;;16.63;;
57567;SDS011;43403;51.948;5.922;2024-03-22T08:02:11;27.50;;;16.30;;
57567;SDS011;43403;51.948;5.922;2024-03-22T08:04:36;30.85;;;18.10;;
57567;SDS011;43403;51.948;5.922;2024-03-22T08:07:02;29.55;;;17.25;;
57567;SDS011;43403;51.948;5.922;2024-03-22T08:09:27;28.10;;;16.00;;
57567;SDS011;43403;51.948;5.922;2024-03-22T08:11:52;28.20;;;17.40;;
57567;SDS011;43403;51.948;5.922;2024-03-22T08:14:18;29.70;;;17.40;;
57567;SDS011;43403;51.948;5.922;2024-03-22T08:16:43;29.42;;;16.08;;
57567;SDS011;43403;51.948;5.922;2024-03-22T08:19:09;29.65;;;16.83;;
57567;SDS011;43403;51.948;5.922;2024-03-22T08:21:34;28.95;;;16.65;;
57567;SDS011;43403;51.948;5.922;2024-03-22T08:24:00;31.23;;;17.10;;
57567;SDS011;43403;51.948;5.922;2024-03-22T08:26:25;29.45;;;17.00;;
57567;SDS011;43403;51.948;5.922;2024-03-22T08:28:50;32.92;;;18.02;;
57567;SDS011;43403;51.948;5.922;2024-03-22T08:31:16;33.35;;;18.25;;
57567;SDS011;43403;51.948;5.922;2024-03-22T08:33:42;29.63;;;19.80;;
57567;SDS011;43403;51.948;5.922;2024-03-22T08:36:07;30.15;;;19.15;;
57567;SDS011;43403;51.948;5.922;2024-03-22T08:38:33;31.20;;;18.45;;
57567;SDS011;43403;51.948;5.922;2024-03-22T08:40:59;32.50;;;18.63;;
57567;SDS011;43403;51.948;5.922;2024-03-22T08:43:24;29.45;;;17.83;;
57567;SDS011;43403;51.948;5.922;2024-03-22T08:45:53;33.45;;;18.50;;
57567;SDS011;43403;51.948;5.922;2024-03-22T08:48:18;36.22;;;21.45;;
57567;SDS011;43403;51.948;5.922;2024-03-22T08:50:44;38.28;;;21.48;;
57567;SDS011;43403;51.948;5.922;2024-03-22T08:53:09;38.90;;;23.23;;
57567;SDS011;43403;51.948;5.922;2024-03-22T08:55:35;37.58;;;24.95;;
57567;SDS011;43403;51.948;5.922;2024-03-22T08:58:02;38.30;;;22.80;;
57567;SDS011;43403;51.948;5.922;2024-03-22T09:00:28;43.00;;;25.23;;
57567;SDS011;43403;51.948;5.922;2024-03-22T09:02:53;36.85;;;20.83;;
57567;SDS011;43403;51.948;5.922;2024-03-22T09:05:18;34.80;;;20.70;;
57567;SDS011;43403;51.948;5.922;2024-03-22T09:07:44;33.38;;;20.17;;
57567;SDS011;43403;51.948;5.922;2024-03-22T09:10:10;35.78;;;20.98;;
57567;SDS011;43403;51.948;5.922;2024-03-22T09:12:36;42.63;;;23.55;;
57567;SDS011;43403;51.948;5.922;2024-03-22T09:15:01;35.90;;;21.20;;
57567;SDS011;43403;51.948;5.922;2024-03-22T09:17:27;41.42;;;23.50;;
57567;SDS011;43403;51.948;5.922;2024-03-22T09:19:52;39.67;;;21.30;;
57567;SDS011;43403;51.948;5.922;2024-03-22T09:22:18;34.30;;;19.70;;
57567;SDS011;43403;51.948;5.922;2024-03-22T09:24:43;37.85;;;22.13;;
57567;SDS011;43403;51.948;5.922;2024-03-22T09:27:09;39.10;;;22.85;;
57567;SDS011;43403;51.948;5.922;2024-03-22T09:29:38;35.75;;;21.02;;
57567;SDS011;43403;51.948;5.922;2024-03-22T09:32:05;37.25;;;20.60;;
57567;SDS011;43403;51.948;5.922;2024-03-22T09:34:32;37.60;;;22.25;;
57567;SDS011;43403;51.948;5.922;2024-03-22T09:36:58;38.67;;;20.92;;
57567;SDS011;43403;51.948;5.922;2024-03-22T09:39:23;40.17;;;24.77;;
57567;SDS011;43403;51.948;5.922;2024-03-22T09:41:50;35.97;;;21.52;;
57567;SDS011;43403;51.948;5.922;2024-03-22T09:44:17;37.60;;;21.60;;
57567;SDS011;43403;51.948;5.922;2024-03-22T09:46:46;46.42;;;22.23;;
57567;SDS011;43403;51.948;5.922;2024-03-22T09:49:12;34.95;;;21.15;;
57567;SDS011;43403;51.948;5.922;2024-03-22T09:51:39;41.13;;;23.13;;
57567;SDS011;43403;51.948;5.922;2024-03-22T09:54:04;36.72;;;21.77;;
57567;SDS011;43403;51.948;5.922;2024-03-22T09:56:30;36.00;;;20.20;;
57567;SDS011;43403;51.948;5.922;2024-03-22T09:58:57;38.95;;;20.55;;
57567;SDS011;43403;51.948;5.922;2024-03-22T10:01:24;32.75;;;20.25;;
57567;SDS011;43403;51.948;5.922;2024-03-22T10:03:51;38.67;;;20.80;;
57567;SDS011;43403;51.948;5.922;2024-03-22T10:06:16;34.42;;;20.48;;
57567;SDS011;43403;51.948;5.922;2024-03-22T10:08:41;34.67;;;20.15;;
57567;SDS011;43403;51.948;5.922;2024-03-22T10:11:07;29.60;;;19.02;;
57567;SDS011;43403;51.948;5.922;2024-03-22T10:13:32;31.67;;;19.25;;
57567;SDS011;43403;51.948;5.922;2024-03-22T10:15:58;29.48;;;18.40;;
57567;SDS011;43403;51.948;5.922;2024-03-22T10:18:23;39.90;;;19.55;;
57567;SDS011;43403;51.948;5.922;2024-03-22T10:20:58;31.90;;;17.98;;
57567;SDS011;43403;51.948;5.922;2024-03-22T10:23:25;31.20;;;18.65;;
57567;SDS011;43403;51.948;5.922;2024-03-22T10:25:51;29.08;;;17.00;;
57567;SDS011;43403;51.948;5.922;2024-03-22T10:28:16;29.60;;;18.60;;
57567;SDS011;43403;51.948;5.922;2024-03-22T10:30:42;34.42;;;20.15;;
57567;SDS011;43403;51.948;5.922;2024-03-22T10:33:08;31.15;;;18.98;;
57567;SDS011;43403;51.948;5.922;2024-03-22T10:35:34;29.40;;;17.35;;
57567;SDS011;43403;51.948;5.922;2024-03-22T10:38:00;32.05;;;17.67;;
57567;SDS011;43403;51.948;5.922;2024-03-22T10:40:27;30.10;;;18.75;;
57567;SDS011;43403;51.948;5.922;2024-03-22T10:42:53;29.35;;;18.45;;
57567;SDS011;43403;51.948;5.922;2024-03-22T10:45:18;30.50;;;18.10;;
57567;SDS011;43403;51.948;5.922;2024-03-22T10:47:47;33.20;;;19.90;;
57567;SDS011;43403;51.948;5.922;2024-03-22T10:50:13;32.97;;;19.02;;
57567;SDS011;43403;51.948;5.922;2024-03-22T10:52:46;31.55;;;18.42;;
57567;SDS011;43403;51.948;5.922;2024-03-22T10:55:13;32.20;;;17.40;;
57567;SDS011;43403;51.948;5.922;2024-03-22T10:57:40;33.20;;;18.85;;
57567;SDS011;43403;51.948;5.922;2024-03-22T11:00:09;37.25;;;20.63;;
57567;SDS011;43403;51.948;5.922;2024-03-22T11:02:37;32.28;;;18.73;;
57567;SDS011;43403;51.948;5.922;2024-03-22T11:05:03;34.30;;;19.15;;
57567;SDS011;43403;51.948;5.922;2024-03-22T11:07:29;34.13;;;19.58;;
57567;SDS011;43403;51.948;5.922;2024-03-22T11:10:00;32.33;;;20.58;;
57567;SDS011;43403;51.948;5.922;2024-03-22T11:12:27;33.55;;;19.67;;
57567;SDS011;43403;51.948;5.922;2024-03-22T11:14:53;31.65;;;19.33;;
57567;SDS011;43403;51.948;5.922;2024-03-22T11:17:20;34.78;;;19.08;;
57567;SDS011;43403;51.948;5.922;2024-03-22T11:19:50;36.80;;;20.90;;
57567;SDS011;43403;51.948;5.922;2024-03-22T11:22:17;34.30;;;18.50;;
57567;SDS011;43403;51.948;5.922;2024-03-22T11:24:42;29.23;;;16.65;;
57567;SDS011;43403;51.948;5.922;2024-03-22T11:27:08;22.33;;;13.88;;
57567;SDS011;43403;51.948;5.922;2024-03-22T11:29:36;24.55;;;16.08;;
57567;SDS011;43403;51.948;5.922;2024-03-22T11:32:05;25.60;;;15.82;;
57567;SDS011;43403;51.948;5.922;2024-03-22T11:34:32;24.80;;;14.57;;
57567;SDS011;43403;51.948;5.922;2024-03-22T11:36:59;24.38;;;13.55;;
57567;SDS011;43403;51.948;5.922;2024-03-22T11:39:24;20.75;;;12.85;;
57567;SDS011;43403;51.948;5.922;2024-03-22T11:41:50;22.10;;;13.23;;
57567;SDS011;43403;51.948;5.922;2024-03-22T11:44:15;22.77;;;13.48;;
57567;SDS011;43403;51.948;5.922;2024-03-22T11:46:43;20.57;;;13.90;;
57567;SDS011;43403;51.948;5.922;2024-03-22T11:49:09;23.40;;;13.55;;
57567;SDS011;43403;51.948;5.922;2024-03-22T11:51:34;21.40;;;14.10;;
57567;SDS011;43403;51.948;5.922;2024-03-22T11:54:00;19.58;;;12.50;;
57567;SDS011;43403;51.948;5.922;2024-03-22T11:56:27;19.10;;;12.80;;
57567;SDS011;43403;51.948;5.922;2024-03-22T11:58:58;18.25;;;11.82;;
57567;SDS011;43403;51.948;5.922;2024-03-22T12:01:23;19.25;;;10.98;;
57567;SDS011;43403;51.948;5.922;2024-03-22T12:03:49;18.08;;;12.00;;
57567;SDS011;43403;51.948;5.922;2024-03-22T12:06:17;17.08;;;11.23;;
57567;SDS011;43403;51.948;5.922;2024-03-22T12:11:08;16.38;;;10.90;;
57567;SDS011;43403;51.948;5.922;2024-03-22T12:13:35;18.33;;;10.57;;
57567;SDS011;43403;51.948;5.922;2024-03-22T12:16:00;13.55;;;9.88;;
57567;SDS011;43403;51.948;5.922;2024-03-22T12:18:27;13.32;;;10.10;;
57567;SDS011;43403;51.948;5.922;2024-03-22T12:20:53;12.40;;;8.90;;
57567;SDS011;43403;51.948;5.922;2024-03-22T12:23:18;10.77;;;8.65;;
57567;SDS011;43403;51.948;5.922;2024-03-22T12:25:43;12.32;;;8.68;;
57567;SDS011;43403;51.948;5.922;2024-03-22T12:28:09;11.38;;;8.88;;
57567;SDS011;43403;51.948;5.922;2024-03-22T12:30:35;15.90;;;10.57;;
57567;SDS011;43403;51.948;5.922;2024-03-22T12:33:00;13.52;;;9.95;;
57567;SDS011;43403;51.948;5.922;2024-03-22T12:35:26;13.82;;;9.38;;
57567;SDS011;43403;51.948;5.922;2024-03-22T12:37:52;14.30;;;10.43;;
57567;SDS011;43403;51.948;5.922;2024-03-22T12:40:18;17.38;;;12.52;;
57567;SDS011;43403;51.948;5.922;2024-03-22T12:42:44;12.50;;;9.10;;
57567;SDS011;43403;51.948;5.922;2024-03-22T12:45:09;12.75;;;9.10;;
57567;SDS011;43403;51.948;5.922;2024-03-22T12:47:35;12.60;;;9.73;;
57567;SDS011;43403;51.948;5.922;2024-03-22T12:50:00;12.48;;;8.65;;
57567;SDS011;43403;51.948;5.922;2024-03-22T12:52:26;11.40;;;8.20;;
57567;SDS011;43403;51.948;5.922;2024-03-22T12:54:51;10.20;;;7.88;;
57567;SDS011;43403;51.948;5.922;2024-03-22T12:57:17;9.98;;;8.38;;
57567;SDS011;43403;51.948;5.922;2024-03-22T12:59:43;12.27;;;7.88;;
57567;SDS011;43403;51.948;5.922;2024-03-22T13:02:08;9.52;;;7.18;;
57567;SDS011;43403;51.948;5.922;2024-03-22T13:04:34;8.90;;;6.70;;
57567;SDS011;43403;51.948;5.922;2024-03-22T13:06:59;9.75;;;7.32;;
57567;SDS011;43403;51.948;5.922;2024-03-22T13:09:24;12.32;;;7.20;;
57567;SDS011;43403;51.948;5.922;2024-03-22T13:11:50;7.28;;;6.00;;
57567;SDS011;43403;51.948;5.922;2024-03-22T13:14:15;8.68;;;6.68;;
57567;SDS011;43403;51.948;5.922;2024-03-22T13:16:42;7.45;;;5.68;;
57567;SDS011;43403;51.948;5.922;2024-03-22T13:19:07;7.85;;;5.47;;
57567;SDS011;43403;51.948;5.922;2024-03-22T13:21:37;8.80;;;5.20;;
57567;SDS011;43403;51.948;5.922;2024-03-22T13:24:03;8.00;;;5.63;;
57567;SDS011;43403;51.948;5.922;2024-03-22T13:26:28;8.07;;;5.45;;
57567;SDS011;43403;51.948;5.922;2024-03-22T13:28:54;9.05;;;5.68;;
57567;SDS011;43403;51.948;5.922;2024-03-22T13:31:19;9.23;;;5.63;;
57567;SDS011;43403;51.948;5.922;2024-03-22T13:33:45;8.52;;;5.40;;
57567;SDS011;43403;51.948;5.922;2024-03-22T13:36:10;7.50;;;5.05;;
57567;SDS011;43403;51.948;5.922;2024-03-22T13:38:36;6.85;;;5.38;;
57567;SDS011;43403;51.948;5.922;2024-03-22T13:41:01;8.25;;;5.30;;
57567;SDS011;43403;51.948;5.922;2024-03-22T13:43:29;6.57;;;4.72;;
57567;SDS011;43403;51.948;5.922;2024-03-22T13:45:54;6.70;;;4.45;;
57567;SDS011;43403;51.948;5.922;2024-03-22T13:48:23;6.13;;;4.05;;
57567;SDS011;43403;51.948;5.922;2024-03-22T13:50:51;5.60;;;3.50;;
57567;SDS011;43403;51.948;5.922;2024-03-22T13:53:17;5.28;;;3.92;;
57567;SDS011;43403;51.948;5.922;2024-03-22T13:55:42;7.15;;;4.03;;
57567;SDS011;43403;51.948;5.922;2024-03-22T13:58:08;5.78;;;4.20;;
57567;SDS011;43403;51.948;5.922;2024-03-22T14:00:33;6.82;;;4.07;;
57567;SDS011;43403;51.948;5.922;2024-03-22T14:02:59;5.15;;;4.13;;
57567;SDS011;43403;51.948;5.922;2024-03-22T14:05:24;7.55;;;4.05;;
57567;SDS011;43403;51.948;5.922;2024-03-22T14:07:50;4.97;;;3.92;;
57567;SDS011;43403;51.948;5.922;2024-03-22T14:10:16;7.13;;;3.28;;
57567;SDS011;43403;51.948;5.922;2024-03-22T14:12:42;6.75;;;3.92;;
57567;SDS011;43403;51.948;5.922;2024-03-22T14:15:08;5.80;;;3.88;;
57567;SDS011;43403;51.948;5.922;2024-03-22T14:17:33;5.35;;;3.65;;
57567;SDS011;43403;51.948;5.922;2024-03-22T14:19:59;6.25;;;3.72;;
57567;SDS011;43403;51.948;5.922;2024-03-22T14:22:25;6.55;;;4.32;;